createdAt,value
2022-10-20T00:01:26.569Z,5.5
2022-10-20T00:06:28.781Z,6.5
2022-10-20T00:11:30.900Z,5.5
2022-10-20T00:16:33.341Z,6.5
2022-10-20T00:21:35.550Z,5.6
2022-10-20T00:26:37.765Z,5.6
2022-10-20T00:31:40.263Z,5.9
2022-10-20T00:36:42.972Z,6.2
2022-10-20T00:41:52.127Z,5.9
2022-10-20T00:46:54.148Z,6.2
2022-10-20T00:51:56.770Z,6.2
2022-10-20T00:56:58.810Z,5.9
2022-10-20T01:02:01.441Z,6.7
2022-10-20T01:07:03.755Z,6.1
2022-10-20T01:12:05.825Z,6.1
2022-10-20T01:17:07.829Z,6.1
2022-10-20T01:22:10.065Z,9.1
2022-10-20T01:27:10.462Z,6.1
2022-10-20T01:32:12.684Z,6
2022-10-20T01:37:49.375Z,6.2
2022-10-20T01:42:23.178Z,5.7
2022-10-20T01:47:25.648Z,6
2022-10-20T01:52:27.730Z,5.9
2022-10-20T01:57:29.848Z,5.9
2022-10-20T02:02:32.374Z,6.4
2022-10-20T02:07:35.394Z,6.3
2022-10-20T02:12:38.006Z,6.1
2022-10-20T02:17:41.083Z,5.8
2022-10-20T02:22:43.213Z,6.9
2022-10-20T02:27:45.259Z,6.5
2022-10-20T02:32:47.669Z,6.2
2022-10-20T02:37:49.763Z,6.3
2022-10-20T02:42:51.957Z,6.5
2022-10-20T02:47:54.181Z,7.1
2022-10-20T02:52:56.331Z,6.8
2022-10-20T02:57:58.539Z,9.3
2022-10-20T03:02:58.993Z,6
2022-10-20T03:08:01.213Z,5.7
2022-10-20T03:13:03.439Z,5.9
2022-10-20T03:18:06.145Z,6
2022-10-20T03:23:08.320Z,5.9
2022-10-20T03:28:10.543Z,5.9
2022-10-20T03:33:12.777Z,6.5
2022-10-20T03:38:15.018Z,6.3
2022-10-20T03:43:17.135Z,5.5
2022-10-20T03:48:19.589Z,5.8
2022-10-20T03:53:21.655Z,6.1
2022-10-20T03:58:23.929Z,6
2022-10-20T04:03:26.021Z,5.7
2022-10-20T04:08:28.320Z,6.4
2022-10-20T04:13:30.484Z,6.1
2022-10-20T04:18:32.662Z,5.9
2022-10-20T04:23:34.726Z,5.8
2022-10-20T04:28:37.110Z,6.1
2022-10-20T04:33:39.799Z,7.7
2022-10-20T04:38:42.292Z,6.5
2022-10-20T04:43:44.468Z,7.4
2022-10-20T04:48:46.643Z,7.3
2022-10-20T04:53:49.136Z,7.3
2022-10-20T04:58:51.401Z,6.4
2022-10-20T05:03:53.525Z,7.6
2022-10-20T05:08:56.064Z,7.5
2022-10-20T05:13:58.744Z,7.7
2022-10-20T05:19:00.924Z,8.9
2022-10-20T05:24:03.144Z,8.6
2022-10-20T05:29:05.305Z,8.8
2022-10-20T05:34:07.851Z,9.5
2022-10-20T05:39:10.050Z,8.5
2022-10-20T05:44:12.353Z,9.2
2022-10-20T05:49:14.960Z,10.3
2022-10-20T05:54:17.344Z,9.1
2022-10-20T05:59:19.594Z,11.3
2022-10-20T06:04:23.171Z,10.7
2022-10-20T06:09:25.984Z,11.7
2022-10-20T06:14:28.497Z,10.4
2022-10-20T06:19:30.920Z,10.1
2022-10-20T06:24:33.077Z,9
2022-10-20T06:29:35.401Z,8
2022-10-20T06:34:37.365Z,8.5
2022-10-20T06:39:39.390Z,7.1
2022-10-20T06:44:41.476Z,6.2
2022-10-20T06:49:45.115Z,5.2
2022-10-20T06:54:47.562Z,5.2
2022-10-20T06:59:49.571Z,4.1
2022-10-20T07:04:51.550Z,3.3
2022-10-20T07:09:53.764Z,2.5
2022-10-20T07:14:55.869Z,2.1
2022-10-20T07:19:57.918Z,1.6
2022-10-20T07:24:59.931Z,1.6
2022-10-20T07:30:02.168Z,1.3
2022-10-20T07:35:04.326Z,1.3
2022-10-20T07:40:06.637Z,9
2022-10-20T07:45:08.953Z,1.2
2022-10-20T07:50:11.008Z,1.2
2022-10-20T07:55:39.138Z,1.1
2022-10-20T08:00:21.792Z,1.4
2022-10-20T08:05:23.779Z,1.4
2022-10-20T08:10:25.894Z,1.3
2022-10-20T08:15:32.282Z,2.2
2022-10-20T08:20:38.469Z,1.3
2022-10-20T08:25:42.012Z,1.5
2022-10-20T08:30:44.401Z,1.7
2022-10-20T08:35:47.086Z,1.5
2022-10-20T08:40:49.587Z,1.5
2022-10-20T08:45:52.215Z,2
2022-10-20T08:50:52.586Z,1.6
2022-10-20T08:55:54.798Z,1.6
2022-10-20T09:00:57.967Z,1.4
2022-10-20T09:05:59.965Z,1.5
2022-10-20T09:11:02.127Z,1.5
2022-10-20T09:16:04.210Z,1.9
2022-10-20T09:21:06.324Z,1.7
2022-10-20T09:26:08.713Z,1.7
2022-10-20T09:31:18.043Z,1.4
2022-10-20T09:36:20.439Z,1.5
2022-10-20T09:41:22.637Z,1.3
2022-10-20T09:46:24.932Z,1.6
2022-10-20T09:51:26.917Z,1.2
2022-10-20T09:56:29.011Z,1.2
2022-10-20T10:01:31.202Z,1.4
2022-10-20T10:06:33.428Z,1.5
2022-10-20T10:11:35.652Z,1.3
2022-10-20T10:16:37.905Z,1.4
2022-10-20T10:21:40.095Z,1.4
2022-10-20T10:26:44.292Z,2.1
2022-10-20T10:31:46.314Z,1.3
2022-10-20T10:36:48.757Z,7.9
2022-10-20T10:41:51.159Z,1.4
2022-10-20T10:46:53.453Z,1.4
2022-10-20T10:51:55.783Z,1.5
2022-10-20T10:56:57.784Z,1.4
2022-10-20T11:01:59.882Z,1.5
2022-10-20T11:07:01.954Z,1.4
2022-10-20T11:12:04.180Z,1.5
2022-10-20T11:17:06.299Z,1.5
2022-10-20T11:22:13.286Z,1.5
2022-10-20T11:27:17.241Z,1.5
2022-10-20T11:32:19.323Z,1.5
2022-10-20T11:37:21.308Z,1.6
2022-10-20T11:42:23.507Z,1.5
2022-10-20T11:47:25.768Z,12
2022-10-20T11:52:28.050Z,1.6
2022-10-20T11:57:30.543Z,1.5
2022-10-20T12:02:32.514Z,1.3
2022-10-20T12:07:35.412Z,1.3
2022-10-20T12:12:38.243Z,1.4
2022-10-20T12:17:41.083Z,1.5
2022-10-20T12:22:43.325Z,1.8
2022-10-20T12:27:45.297Z,1.5
2022-10-20T12:32:47.492Z,1.7
2022-10-20T12:37:49.835Z,1.7
2022-10-20T12:42:52.142Z,1.5
2022-10-20T12:47:54.225Z,1.6
2022-10-20T12:52:56.238Z,1.6
2022-10-20T12:57:58.349Z,1.6
2022-10-20T13:03:00.412Z,1.6
2022-10-20T13:08:02.459Z,2
2022-10-20T13:13:05.106Z,1.6
2022-10-20T13:18:07.140Z,1.6
2022-10-20T13:23:09.379Z,1.6
2022-10-20T13:28:11.515Z,2.3
2022-10-20T13:33:58.679Z,1.7
2022-10-20T13:38:17.516Z,1.6
2022-10-20T13:43:19.451Z,1.9
2022-10-20T13:48:21.470Z,1.8
2022-10-20T13:53:23.964Z,1.7
2022-10-20T13:58:26.058Z,1.7
2022-10-20T14:03:28.556Z,1.5
2022-10-20T14:08:29.516Z,1.5
2022-10-20T14:13:32.110Z,3
2022-10-20T14:18:34.197Z,1.7
2022-10-20T14:23:36.889Z,1.7
2022-10-20T14:28:39.140Z,1.8
2022-10-20T14:33:41.116Z,1.6
2022-10-20T14:38:43.436Z,1.8
2022-10-20T14:43:45.461Z,2.8
2022-10-20T14:48:47.588Z,1.8
2022-10-20T14:53:49.611Z,1.9
2022-10-20T14:58:51.630Z,1.8
2022-10-20T15:03:54.302Z,2.2
2022-10-20T15:08:56.937Z,23.8
2022-10-20T15:13:59.508Z,2.4
2022-10-20T15:19:01.529Z,1.8
2022-10-20T15:24:03.441Z,3
2022-10-20T15:29:05.525Z,2.3
2022-10-20T15:34:07.475Z,2.6
2022-10-20T15:39:10.335Z,3.1
2022-10-20T15:44:12.419Z,4.1
2022-10-20T15:49:17.204Z,5.9
2022-10-20T15:54:19.673Z,5.8
2022-10-20T15:59:21.829Z,5.1
2022-10-20T16:04:24.119Z,5.7
2022-10-20T16:09:26.800Z,6.5
2022-10-20T16:14:29.080Z,9.7
2022-10-20T16:19:31.207Z,12.3
2022-10-20T16:24:33.212Z,10.4
2022-10-20T16:29:35.482Z,12.1
2022-10-20T16:34:37.916Z,11.8
2022-10-20T16:39:39.996Z,9.5
2022-10-20T16:44:42.361Z,7.9
2022-10-20T16:49:44.354Z,8.9
2022-10-20T16:54:46.385Z,7.8
2022-10-20T16:59:48.823Z,8.6
2022-10-20T17:04:49.678Z,9.1
2022-10-20T17:09:51.818Z,12.3
2022-10-20T17:14:53.940Z,10.9
2022-10-20T17:19:56.142Z,13.3
2022-10-20T17:24:58.282Z,16
2022-10-20T17:30:00.427Z,12
2022-10-20T17:35:02.869Z,12.4
2022-10-20T17:40:05.061Z,13.8
2022-10-20T17:45:07.354Z,16.5
2022-10-20T17:50:09.600Z,18.4
2022-10-20T17:55:11.888Z,16.1
2022-10-20T18:00:37.651Z,14.3
2022-10-20T18:05:18.492Z,9.6
2022-10-20T18:15:22.464Z,10.6
2022-10-20T18:20:24.519Z,11.1
2022-10-20T18:25:28.276Z,11.3
2022-10-20T18:30:30.489Z,14.1
2022-10-20T18:35:32.521Z,15
2022-10-20T18:40:34.671Z,12.5
2022-10-20T18:45:37.060Z,12
2022-10-20T18:50:39.362Z,12.4
2022-10-20T18:55:41.553Z,11.7
2022-10-20T19:00:43.895Z,10.4
2022-10-20T19:05:46.812Z,8.8
2022-10-20T19:10:49.239Z,8.7
2022-10-20T19:15:51.270Z,7.8
2022-10-20T19:20:55.412Z,7.8
2022-10-20T19:25:59.300Z,7.8
2022-10-20T19:31:01.869Z,7.3
2022-10-20T19:36:04.802Z,7.3
2022-10-20T19:41:07.905Z,6.5
2022-10-20T19:46:10.585Z,6.2
2022-10-20T19:51:12.622Z,6.4
2022-10-20T19:56:14.643Z,5.4
2022-10-20T20:01:17.044Z,5.5
2022-10-20T20:06:19.667Z,5
2022-10-20T20:11:21.722Z,5
2022-10-20T20:16:24.728Z,4.8
2022-10-20T20:21:27.198Z,4.7
2022-10-20T20:26:29.694Z,5
2022-10-20T20:31:31.710Z,4.8
2022-10-20T20:36:34.064Z,4.5
2022-10-20T20:41:36.246Z,5
2022-10-20T20:46:39.074Z,5.3
2022-10-20T20:51:41.580Z,4.6
2022-10-20T20:56:43.774Z,4.9
2022-10-20T21:01:46.637Z,4.7
2022-10-20T21:07:03.210Z,4.5
2022-10-20T21:11:55.482Z,4.7
2022-10-20T21:16:57.695Z,4.8
2022-10-20T21:21:59.797Z,4.6
2022-10-20T21:27:02.337Z,4.8
2022-10-20T21:32:04.683Z,5
2022-10-20T21:37:05.475Z,5.2
2022-10-20T21:42:07.738Z,5.3
2022-10-20T21:47:09.901Z,4.7
2022-10-20T21:52:12.015Z,4.7
2022-10-20T21:57:14.517Z,4.9
2022-10-20T22:02:16.549Z,4.7
2022-10-20T22:07:18.829Z,4.6
2022-10-20T22:12:21.029Z,4.8
2022-10-20T22:17:23.066Z,4.7
2022-10-20T22:22:25.187Z,4.9
2022-10-20T22:27:42.996Z,4.7
2022-10-20T22:32:35.839Z,4.9
2022-10-20T22:37:39.348Z,4.5
2022-10-20T22:42:42.314Z,4.2
2022-10-20T22:47:44.477Z,4.5
2022-10-20T22:52:46.569Z,4.5
2022-10-20T22:57:48.839Z,4.4
2022-10-20T23:02:51.081Z,4.4
2022-10-20T23:07:53.705Z,4.4
2022-10-20T23:12:56.332Z,4.4
2022-10-20T23:17:58.406Z,4.4
2022-10-20T23:23:00.891Z,4.3
2022-10-20T23:28:03.224Z,4.3
2022-10-20T23:33:05.412Z,4.3
2022-10-20T23:38:07.669Z,4.3
2022-10-20T23:43:09.955Z,4.6
2022-10-20T23:48:12.712Z,4.2
2022-10-20T23:53:15.061Z,4.5
2022-10-20T23:58:17.454Z,4.2
